Time;durP1;ratioP1;P1;durP2;ratioP2;P2;SDS_P1;SDS_P2;PMS_P1;PMS_P2;Temp;Humidity;BMP_temperature;BMP_pressure;BME280_temperature;BME280_humidity;BME280_pressure;Samples;Min_cycle;Max_cycle;Signal;HPM_P1;HPM_P2
2021/08/31 00:00:49;;;;;;;6.32;4.88;;;14.30;99.90;;;;;;6356702;22;20454;-96
2021/08/31 00:03:15;;;;;;;8.00;5.50;;;14.30;99.90;;;;;;6382452;22;20173;-96
2021/08/31 00:05:41;;;;;;;7.10;5.20;;;14.20;99.90;;;;;;6355568;22;20181;-96
2021/08/31 00:08:07;;;;;;;6.65;4.80;;;14.20;99.90;;;;;;6381009;22;20512;-96
2021/08/31 00:10:34;;;;;;;7.78;5.18;;;14.20;99.90;;;;;;6409080;22;20189;-95
2021/08/31 00:13:00;;;;;;;9.13;5.68;;;14.10;99.90;;;;;;6380662;22;20499;-95
2021/08/31 00:15:26;;;;;;;9.63;5.10;;;14.10;99.90;;;;;;6380706;22;20621;-96
2021/08/31 00:17:52;;;;;;;9.02;5.57;;;14.00;99.90;;;;;;6380598;22;20185;-95
2021/08/31 00:20:18;;;;;;;11.00;5.50;;;14.00;99.90;;;;;;6381954;22;20154;-95
2021/08/31 00:22:44;;;;;;;7.43;5.25;;;14.00;99.90;;;;;;6381986;22;20146;-96
2021/08/31 00:25:11;;;;;;;7.18;5.65;;;14.00;99.90;;;;;;6381609;22;20161;-95
2021/08/31 00:27:37;;;;;;;6.82;5.57;;;13.90;99.90;;;;;;6354897;22;20166;-96
2021/08/31 00:30:07;;;;;;;6.80;5.55;;;13.90;99.90;;;;;;6381173;22;20149;-96
2021/08/31 00:32:32;;;;;;;6.88;5.47;;;13.90;99.90;;;;;;6380867;22;20217;-95
2021/08/31 00:34:58;;;;;;;6.60;5.18;;;13.80;99.90;;;;;;6380583;22;20157;-96
2021/08/31 00:37:24;;;;;;;7.35;5.75;;;13.90;99.90;;;;;;6353268;22;20185;-96
2021/08/31 00:39:51;;;;;;;7.13;5.32;;;13.80;99.90;;;;;;6378781;22;20547;-96
2021/08/31 00:42:17;;;;;;;7.97;5.43;;;13.80;99.90;;;;;;6354054;22;20162;-96
2021/08/31 00:44:44;;;;;;;8.48;5.78;;;13.80;99.90;;;;;;6380191;22;20192;-95
2021/08/31 00:47:10;;;;;;;6.68;5.50;;;13.80;99.90;;;;;;6380123;22;20158;-95
2021/08/31 00:49:36;;;;;;;10.05;6.10;;;13.80;99.90;;;;;;6379552;22;20251;-95
2021/08/31 00:52:05;;;;;;;9.23;6.20;;;13.80;99.90;;;;;;6349267;22;20194;-95
2021/08/31 00:54:31;;;;;;;10.73;5.97;;;13.80;99.90;;;;;;6347390;22;20155;-95
2021/08/31 00:57:00;;;;;;;10.38;6.18;;;13.80;99.90;;;;;;6346984;22;20212;-96
2021/08/31 00:59:25;;;;;;;7.35;5.72;;;13.90;99.90;;;;;;6294887;22;20178;-96
2021/08/31 01:01:55;;;;;;;9.68;6.10;;;13.90;99.90;;;;;;6347035;22;20162;-95
2021/08/31 01:04:23;;;;;;;6.65;5.50;;;13.90;99.90;;;;;;6327258;22;20151;-95
2021/08/31 01:06:52;;;;;;;8.95;6.05;;;14.00;99.90;;;;;;6354561;22;20190;-96
2021/08/31 01:09:19;;;;;;;7.60;5.57;;;13.90;99.90;;;;;;6353269;22;20155;-95
2021/08/31 01:11:48;;;;;;;6.68;5.97;;;14.00;99.90;;;;;;6380260;22;20135;-96
2021/08/31 01:14:21;;;;;;;9.10;6.10;;;14.00;99.90;;;;;;6353665;22;20139;-96
2021/08/31 01:16:56;;;;;;;7.55;5.50;;;14.00;99.90;;;;;;6326811;22;20174;-95
2021/08/31 01:19:33;;;;;;;10.25;5.78;;;14.00;99.90;;;;;;6353036;22;20142;-95
2021/08/31 01:22:06;;;;;;;9.57;5.47;;;14.00;99.90;;;;;;6327885;22;20161;-95
2021/08/31 01:24:39;;;;;;;9.65;5.68;;;14.00;99.90;;;;;;6352420;22;20155;-95
2021/08/31 01:27:08;;;;;;;8.48;6.03;;;14.00;99.90;;;;;;6351155;22;20155;-95
2021/08/31 01:29:37;;;;;;;6.72;5.22;;;14.00;99.90;;;;;;6350319;22;20231;-94
2021/08/31 01:32:04;;;;;;;7.05;5.20;;;13.90;99.90;;;;;;6351598;22;20180;-95
2021/08/31 01:34:32;;;;;;;6.38;5.47;;;13.90;99.90;;;;;;6299991;22;20165;-95
2021/08/31 01:36:59;;;;;;;7.70;5.70;;;13.80;99.90;;;;;;6351168;22;20175;-96
2021/08/31 01:39:25;;;;;;;7.30;5.45;;;13.80;99.90;;;;;;6322968;22;20258;-96
2021/08/31 01:41:53;;;;;;;7.07;5.82;;;13.70;99.90;;;;;;6352405;22;20147;-95
2021/08/31 01:44:19;;;;;;;7.05;5.70;;;13.70;99.90;;;;;;6352410;22;20469;-95
2021/08/31 01:46:45;;;;;;;7.20;5.70;;;13.60;99.90;;;;;;6352486;22;20155;-96
2021/08/31 01:49:12;;;;;;;8.07;5.80;;;13.60;99.90;;;;;;6351902;22;20167;-96
2021/08/31 01:51:38;;;;;;;8.10;6.13;;;13.60;99.90;;;;;;6326124;22;20203;-96
2021/08/31 01:54:05;;;;;;;8.98;5.80;;;13.60;99.90;;;;;;6351542;22;20151;-96
2021/08/31 01:56:31;;;;;;;10.00;6.00;;;13.70;99.90;;;;;;6347548;22;20441;-95
2021/08/31 01:58:57;;;;;;;8.55;5.90;;;13.70;99.90;;;;;;6351464;22;20233;-95
2021/08/31 02:01:24;;;;;;;8.10;6.78;;;13.70;99.90;;;;;;6352322;22;20157;-95
2021/08/31 02:03:51;;;;;;;11.15;6.80;;;13.70;99.90;;;;;;6351248;22;20233;-96
2021/08/31 02:06:17;;;;;;;7.70;5.95;;;13.70;99.90;;;;;;6351608;22;20182;-95
2021/08/31 02:08:43;;;;;;;9.90;6.10;;;13.70;99.90;;;;;;6350659;22;20160;-96
2021/08/31 02:11:09;;;;;;;7.47;5.78;;;13.70;99.90;;;;;;6350838;22;20479;-96
2021/08/31 02:13:35;;;;;;;9.27;5.78;;;13.70;99.90;;;;;;6350511;22;20159;-95
2021/08/31 02:16:10;;;;;;;9.27;5.95;;;13.70;99.90;;;;;;6349455;22;20166;-95
2021/08/31 02:18:39;;;;;;;8.32;5.97;;;13.70;99.90;;;;;;6349822;22;20187;-96
2021/08/31 02:21:06;;;;;;;9.50;6.18;;;13.70;99.90;;;;;;6343841;22;20147;-95
2021/08/31 02:23:32;;;;;;;10.10;6.20;;;13.70;99.90;;;;;;6348319;22;20162;-94
2021/08/31 02:25:58;;;;;;;10.98;6.18;;;13.70;99.90;;;;;;6376399;22;20196;-95
2021/08/31 02:28:24;;;;;;;9.05;6.07;;;13.70;99.90;;;;;;6349944;22;20146;-96
2021/08/31 02:30:51;;;;;;;8.65;6.22;;;13.70;99.90;;;;;;6377602;22;20154;-95
2021/08/31 02:33:17;;;;;;;8.32;6.43;;;13.60;99.90;;;;;;6349631;22;20260;-96
2021/08/31 02:35:43;;;;;;;7.10;6.40;;;13.60;99.90;;;;;;6350269;22;20178;-95
2021/08/31 02:38:08;;;;;;;8.15;5.63;;;13.60;99.90;;;;;;6349486;22;20584;-96
2021/08/31 02:40:34;;;;;;;9.55;6.20;;;13.60;99.90;;;;;;6349454;22;20424;-96
2021/08/31 02:43:00;;;;;;;7.97;6.07;;;13.50;99.90;;;;;;6349428;22;20561;-95
2021/08/31 02:45:26;;;;;;;8.00;6.07;;;13.50;99.90;;;;;;6377106;22;20514;-96
2021/08/31 02:47:52;;;;;;;8.90;6.38;;;13.50;99.90;;;;;;6348891;22;20203;-96
2021/08/31 02:50:18;;;;;;;8.10;6.22;;;13.50;99.90;;;;;;6348888;22;20193;-95
2021/08/31 02:52:46;;;;;;;10.40;6.47;;;13.50;99.90;;;;;;6348609;22;20567;-96
2021/08/31 02:55:13;;;;;;;16.98;7.30;;;13.50;99.90;;;;;;6321260;22;20510;-95
2021/08/31 02:57:41;;;;;;;10.95;6.55;;;13.50;99.90;;;;;;6349682;22;20204;-96
2021/08/31 03:00:17;;;;;;;8.93;6.53;;;13.50;99.90;;;;;;6348698;22;20155;-95
2021/08/31 03:02:45;;;;;;;8.98;6.65;;;13.50;99.90;;;;;;6351610;22;20146;-95
2021/08/31 03:05:16;;;;;;;11.05;6.30;;;13.50;99.90;;;;;;6349288;22;20166;-96
2021/08/31 03:07:41;;;;;;;9.13;6.15;;;13.50;99.90;;;;;;6348874;22;20154;-96
2021/08/31 03:10:08;;;;;;;7.78;6.85;;;13.60;99.90;;;;;;6346853;22;20572;-95
2021/08/31 03:12:35;;;;;;;7.05;6.25;;;13.60;99.90;;;;;;6295185;22;20580;-95
2021/08/31 03:15:03;;;;;;;12.82;7.05;;;13.60;99.90;;;;;;6348229;22;20154;-95
2021/08/31 03:17:28;;;;;;;8.60;6.63;;;13.70;99.90;;;;;;6348394;22;20186;-96
2021/08/31 03:19:54;;;;;;;10.25;7.25;;;13.70;99.90;;;;;;6348473;22;20153;-96
2021/08/31 03:22:20;;;;;;;8.38;6.63;;;13.70;99.90;;;;;;6347584;22;20243;-96
2021/08/31 03:24:47;;;;;;;9.18;7.22;;;13.80;99.90;;;;;;6347509;22;20561;-95
2021/08/31 03:27:16;;;;;;;8.10;6.78;;;13.70;99.90;;;;;;6348091;22;20580;-94
2021/08/31 03:29:42;;;;;;;9.30;6.93;;;13.80;99.90;;;;;;6347369;22;20166;-96
2021/08/31 03:32:10;;;;;;;10.77;7.80;;;13.80;99.90;;;;;;6347567;22;20150;-96
2021/08/31 03:34:39;;;;;;;12.52;7.32;;;13.90;99.90;;;;;;6347438;22;20184;-96
2021/08/31 03:37:09;;;;;;;11.25;7.65;;;13.90;99.90;;;;;;6346518;22;20597;-96
2021/08/31 03:39:37;;;;;;;9.88;6.95;;;13.80;99.90;;;;;;6346053;22;20150;-96
2021/08/31 03:42:04;;;;;;;8.90;7.43;;;13.80;99.90;;;;;;6347013;22;20214;-95
2021/08/31 03:44:30;;;;;;;8.90;7.50;;;13.70;99.90;;;;;;6347834;22;20161;-96
2021/08/31 03:46:58;;;;;;;13.15;8.10;;;13.70;99.90;;;;;;6353154;22;20150;-96
2021/08/31 03:49:24;;;;;;;12.43;7.72;;;13.70;99.90;;;;;;6356277;22;20155;-95
2021/08/31 03:51:50;;;;;;;9.20;7.68;;;13.70;99.90;;;;;;6329178;22;20203;-95
2021/08/31 03:54:17;;;;;;;9.65;8.02;;;13.70;99.90;;;;;;6352213;22;20237;-96
2021/08/31 03:56:43;;;;;;;15.32;8.65;;;13.70;99.90;;;;;;6327265;22;20190;-96
2021/08/31 03:59:09;;;;;;;10.52;7.75;;;13.80;99.90;;;;;;6355366;22;20162;-96
2021/08/31 04:01:35;;;;;;;9.70;8.52;;;13.80;99.90;;;;;;6356115;22;20178;-96
2021/08/31 04:04:03;;;;;;;9.25;8.35;;;13.70;99.90;;;;;;6328879;22;20159;-96
2021/08/31 04:06:30;;;;;;;10.82;8.55;;;13.60;99.90;;;;;;6356113;22;20142;-96
2021/08/31 04:08:59;;;;;;;10.68;9.10;;;13.60;99.90;;;;;;6355959;22;20161;-96
2021/08/31 04:11:25;;;;;;;11.57;8.70;;;13.60;99.90;;;;;;6355719;22;20150;-95
2021/08/31 04:13:52;;;;;;;12.27;9.40;;;13.60;99.90;;;;;;6355959;22;20245;-95
2021/08/31 04:16:19;;;;;;;14.77;9.43;;;13.60;99.90;;;;;;6353970;22;20154;-96
2021/08/31 04:18:45;;;;;;;12.07;9.45;;;13.60;99.90;;;;;;6353592;22;20182;-96
2021/08/31 04:21:12;;;;;;;10.15;8.68;;;13.60;99.90;;;;;;6381707;22;20210;-95
2021/08/31 04:23:43;;;;;;;12.45;9.27;;;13.60;99.90;;;;;;6327537;22;20159;-95
2021/08/31 04:26:09;;;;;;;13.18;9.90;;;13.50;99.90;;;;;;6354182;22;20454;-96
2021/08/31 04:28:35;;;;;;;12.52;9.88;;;13.60;99.90;;;;;;6353787;22;20157;-96
2021/08/31 04:31:04;;;;;;;14.55;9.85;;;13.60;99.90;;;;;;6351449;22;20162;-95
2021/08/31 04:33:34;;;;;;;12.18;9.50;;;13.60;99.90;;;;;;6352187;22;20155;-95
2021/08/31 04:36:03;;;;;;;10.57;9.43;;;13.50;99.90;;;;;;6327001;22;20177;-95
2021/08/31 04:38:29;;;;;;;13.35;10.52;;;13.50;99.90;;;;;;6350127;22;20187;-96
2021/08/31 04:40:56;;;;;;;12.80;10.77;;;13.60;99.90;;;;;;6378659;22;20154;-95
2021/08/31 04:43:26;;;;;;;14.50;10.15;;;13.50;99.90;;;;;;6350617;22;20246;-95
2021/08/31 04:45:52;;;;;;;12.75;10.15;;;13.50;99.90;;;;;;6351931;22;20142;-95
2021/08/31 04:48:18;;;;;;;15.02;10.10;;;13.60;99.90;;;;;;6351908;22;20158;-95
2021/08/31 04:50:44;;;;;;;16.27;11.73;;;13.60;99.90;;;;;;6351528;22;20194;-94
2021/08/31 04:53:11;;;;;;;14.85;10.52;;;13.60;99.90;;;;;;6349109;22;20158;-95
2021/08/31 04:55:37;;;;;;;13.13;10.93;;;13.60;99.90;;;;;;6323917;22;20577;-95
2021/08/31 04:58:03;;;;;;;15.13;11.05;;;13.60;99.90;;;;;;6351150;22;20182;-96
2021/08/31 05:00:28;;;;;;;12.90;10.45;;;13.60;99.90;;;;;;6350354;22;20157;-95
2021/08/31 05:02:56;;;;;;;16.27;10.75;;;13.60;99.90;;;;;;6350509;22;20155;-95
2021/08/31 05:05:23;;;;;;;18.67;11.23;;;13.60;99.90;;;;;;6352440;22;20186;-95
2021/08/31 05:07:49;;;;;;;14.85;11.25;;;13.60;99.90;;;;;;6326319;22;20186;-95
2021/08/31 05:10:16;;;;;;;15.15;11.18;;;13.50;99.90;;;;;;6353114;22;20207;-95
2021/08/31 05:12:41;;;;;;;13.73;11.10;;;13.60;99.90;;;;;;6353360;22;20556;-95
2021/08/31 05:15:09;;;;;;;18.08;11.35;;;13.60;99.90;;;;;;6326986;22;20159;-95
2021/08/31 05:17:35;;;;;;;13.38;11.23;;;13.60;99.90;;;;;;6352703;22;20189;-95
2021/08/31 05:20:05;;;;;;;12.40;10.93;;;13.60;99.90;;;;;;6358131;22;20150;-94
2021/08/31 05:22:32;;;;;;;15.90;11.10;;;13.60;99.90;;;;;;6371192;22;20169;-95
2021/08/31 05:25:04;;;;;;;14.73;11.73;;;13.60;99.90;;;;;;6373167;22;20172;-94
2021/08/31 05:27:32;;;;;;;13.85;11.70;;;13.60;99.90;;;;;;6373923;22;20165;-94
2021/08/31 05:29:58;;;;;;;14.02;11.00;;;13.60;99.90;;;;;;6373499;22;20174;-95
2021/08/31 05:32:24;;;;;;;17.67;13.30;;;13.70;99.90;;;;;;6372850;22;20149;-94
2021/08/31 05:34:50;;;;;;;19.55;12.70;;;13.70;99.90;;;;;;6373237;22;20190;-95
2021/08/31 05:37:16;;;;;;;15.68;12.23;;;13.70;99.90;;;;;;6372475;22;20171;-93
2021/08/31 05:39:43;;;;;;;17.48;12.50;;;13.70;99.90;;;;;;6399939;22;20143;-95
2021/08/31 05:42:10;;;;;;;17.30;11.70;;;13.70;99.90;;;;;;6372792;22;20207;-95
2021/08/31 05:44:43;;;;;;;15.98;11.88;;;13.70;99.90;;;;;;6371551;22;20195;-95
2021/08/31 05:47:09;;;;;;;17.20;11.93;;;13.70;99.90;;;;;;6371825;22;20137;-95
2021/08/31 05:49:38;;;;;;;14.65;11.27;;;13.70;99.90;;;;;;6370477;22;20154;-95
2021/08/31 05:52:06;;;;;;;15.05;11.35;;;13.80;99.90;;;;;;6369192;22;20189;-95
2021/08/31 05:54:34;;;;;;;15.13;12.38;;;13.70;99.90;;;;;;6368206;22;20135;-95
2021/08/31 05:57:06;;;;;;;16.75;11.70;;;13.70;99.90;;;;;;6379419;22;20708;-94
2021/08/31 05:59:32;;;;;;;17.23;12.25;;;13.70;99.90;;;;;;6349959;22;20258;-96
2021/08/31 06:01:58;;;;;;;14.90;11.77;;;13.80;99.90;;;;;;6348429;22;20157;-96
2021/08/31 06:04:25;;;;;;;15.25;12.15;;;13.70;99.90;;;;;;6348404;22;20154;-96
2021/08/31 06:06:51;;;;;;;17.60;11.40;;;13.70;99.90;;;;;;6347941;22;20437;-96
2021/08/31 06:09:17;;;;;;;14.43;11.75;;;13.70;99.90;;;;;;6346638;22;20166;-96
2021/08/31 06:11:44;;;;;;;14.43;12.32;;;13.70;99.90;;;;;;6321392;22;20150;-96
2021/08/31 06:14:10;;;;;;;14.32;11.55;;;13.80;99.90;;;;;;6321556;22;20249;-96
2021/08/31 06:16:37;;;;;;;15.82;11.95;;;13.80;99.90;;;;;;6348254;22;20151;-94
2021/08/31 06:19:03;;;;;;;15.70;12.75;;;13.80;99.90;;;;;;6361992;22;20158;-95
2021/08/31 06:21:30;;;;;;;15.00;11.88;;;13.80;99.90;;;;;;6339490;22;20161;-94
2021/08/31 06:24:01;;;;;;;13.90;11.52;;;13.80;99.90;;;;;;6389296;22;20255;-95
2021/08/31 06:26:28;;;;;;;16.42;11.88;;;13.90;99.90;;;;;;6360661;22;20158;-95
2021/08/31 06:28:54;;;;;;;14.27;11.85;;;13.90;99.90;;;;;;6361214;22;20154;-95
2021/08/31 06:31:22;;;;;;;15.35;11.80;;;13.90;99.90;;;;;;6360627;22;20154;-95
2021/08/31 06:33:48;;;;;;;18.15;11.52;;;14.00;99.90;;;;;;6335432;22;20183;-96
2021/08/31 06:36:14;;;;;;;16.15;11.60;;;13.90;99.90;;;;;;6361793;22;20151;-95
2021/08/31 06:38:46;;;;;;;14.45;11.15;;;14.00;99.90;;;;;;6365613;22;20186;-95
2021/08/31 06:41:12;;;;;;;14.40;11.07;;;14.00;99.90;;;;;;6366888;22;20151;-94
2021/08/31 06:43:38;;;;;;;13.80;10.82;;;13.90;99.90;;;;;;6367057;22;20161;-95
2021/08/31 06:46:04;;;;;;;13.95;11.85;;;14.00;99.90;;;;;;6354287;22;20158;-95
2021/08/31 06:48:31;;;;;;;16.90;10.85;;;14.00;99.90;;;;;;6367732;22;20161;-94
2021/08/31 06:50:58;;;;;;;16.60;10.48;;;14.10;99.90;;;;;;6342283;22;20198;-95
2021/08/31 06:53:24;;;;;;;13.60;11.23;;;14.10;99.90;;;;;;6341942;22;20162;-95
2021/08/31 06:55:49;;;;;;;17.80;11.38;;;14.20;99.90;;;;;;6368475;22;20532;-95
2021/08/31 06:58:15;;;;;;;14.63;10.57;;;14.20;99.90;;;;;;6366800;22;20171;-95
2021/08/31 07:00:43;;;;;;;15.90;10.65;;;14.30;99.90;;;;;;6366151;22;20152;-95
2021/08/31 07:03:09;;;;;;;13.90;10.57;;;14.30;99.90;;;;;;6366503;22;20158;-94
2021/08/31 07:05:35;;;;;;;15.20;10.90;;;14.30;99.90;;;;;;6339882;22;20166;-94
2021/08/31 07:08:00;;;;;;;13.35;10.48;;;14.40;99.90;;;;;;6367861;22;20155;-95
2021/08/31 07:10:27;;;;;;;16.23;10.70;;;14.50;99.90;;;;;;6367990;22;20154;-96
2021/08/31 07:12:53;;;;;;;11.95;9.73;;;14.50;99.90;;;;;;6395921;22;20137;-94
2021/08/31 07:15:19;;;;;;;13.00;9.85;;;14.60;99.90;;;;;;6368366;22;20142;-94
2021/08/31 07:17:45;;;;;;;16.20;10.30;;;14.70;99.90;;;;;;6368624;22;20265;-94
2021/08/31 07:20:11;;;;;;;13.95;9.70;;;14.80;99.90;;;;;;6368172;22;20170;-96
2021/08/31 07:22:37;;;;;;;13.32;9.65;;;14.90;99.90;;;;;;6364994;22;20174;-94
2021/08/31 07:25:06;;;;;;;13.18;9.55;;;15.00;99.90;;;;;;6363620;22;20154;-95
2021/08/31 07:27:32;;;;;;;13.65;9.70;;;15.10;99.90;;;;;;6362474;22;20216;-95
2021/08/31 07:29:58;;;;;;;12.57;8.77;;;15.20;99.90;;;;;;6329512;22;20163;-96
2021/08/31 07:32:27;;;;;;;12.85;9.00;;;15.30;99.90;;;;;;6345968;22;20167;-95
2021/08/31 07:34:53;;;;;;;12.43;9.23;;;15.40;99.90;;;;;;6350557;22;20499;-96
2021/08/31 07:37:19;;;;;;;12.68;8.73;;;15.50;99.90;;;;;;6348872;22;20186;-96
2021/08/31 07:39:45;;;;;;;16.02;9.38;;;15.60;99.90;;;;;;6348282;22;20151;-96
2021/08/31 07:42:11;;;;;;;11.75;8.68;;;15.70;99.90;;;;;;6352335;22;20155;-96
2021/08/31 07:44:37;;;;;;;13.65;8.27;;;15.70;99.90;;;;;;6325943;22;20154;-94
2021/08/31 07:47:05;;;;;;;10.50;8.73;;;15.70;99.90;;;;;;6356716;22;20174;-95
2021/08/31 07:49:34;;;;;;;14.50;8.20;;;15.80;99.90;;;;;;6344232;22;20326;-95
2021/08/31 07:52:00;;;;;;;9.50;7.72;;;15.70;99.90;;;;;;6335758;22;20262;-95
2021/08/31 07:54:27;;;;;;;10.60;8.30;;;15.70;99.90;;;;;;6355603;22;20503;-96
2021/08/31 07:56:55;;;;;;;11.73;7.65;;;15.70;99.90;;;;;;6327464;22;20541;-96
2021/08/31 07:59:22;;;;;;;10.70;8.05;;;15.70;99.90;;;;;;6353691;22;20158;-96
2021/08/31 08:01:49;;;;;;;10.75;7.70;;;15.80;99.90;;;;;;6354310;22;20237;-96
2021/08/31 08:04:41;;;;;;;9.30;7.45;;;15.70;99.90;;;;;;6328552;22;20163;-96
2021/08/31 08:07:10;;;;;;;12.10;7.55;;;15.80;99.90;;;;;;6383434;22;20155;-96
2021/08/31 08:09:59;;;;;;;9.52;7.20;;;15.80;99.90;;;;;;6356568;22;20154;-95
2021/08/31 08:12:36;;;;;;;12.80;6.78;;;16.00;99.90;;;;;;6354856;22;20172;-96
2021/08/31 08:18:00;;;;;;;12.82;6.95;;;16.30;99.90;;;;;;6385598;22;20182;-96
2021/08/31 08:20:52;;;;;;;16.10;6.20;;;16.40;99.90;;;;;;6358424;22;20158;-96
2021/08/31 08:23:20;;;;;;;9.88;6.45;;;16.40;99.90;;;;;;6358875;22;20155;-96
2021/08/31 08:25:49;;;;;;;9.68;6.63;;;16.60;99.90;;;;;;6360280;22;20151;-96
2021/08/31 08:28:16;;;;;;;9.02;6.20;;;16.70;99.90;;;;;;6355418;22;20204;-96
2021/08/31 08:30:49;;;;;;;13.05;6.28;;;16.70;99.90;;;;;;6356002;22;20146;-96
2021/08/31 08:33:24;;;;;;;11.73;7.47;;;16.70;99.90;;;;;;6356341;22;20155;-96
2021/08/31 08:36:03;;;;;;;11.57;6.85;;;16.70;99.90;;;;;;6330253;22;20150;-96
2021/08/31 08:38:33;;;;;;;8.48;6.03;;;16.70;99.90;;;;;;6304458;22;20193;-96
2021/08/31 08:41:05;;;;;;;9.27;6.13;;;16.70;99.90;;;;;;6359563;22;20171;-96
2021/08/31 08:43:38;;;;;;;9.45;6.10;;;16.80;99.90;;;;;;6310600;22;20159;-96
2021/08/31 08:46:28;;;;;;;11.38;6.00;;;16.80;99.90;;;;;;6334094;22;20176;-96
2021/08/31 08:48:57;;;;;;;10.07;5.90;;;16.90;99.90;;;;;;6358533;22;20157;-96
2021/08/31 08:51:26;;;;;;;8.57;6.10;;;17.00;99.90;;;;;;6357592;22;20194;-96
2021/08/31 08:53:54;;;;;;;8.07;5.97;;;17.10;99.90;;;;;;6356176;22;20199;-96
2021/08/31 08:56:28;;;;;;;10.90;6.20;;;17.10;99.90;;;;;;6333876;22;20249;-96
2021/08/31 08:58:54;;;;;;;9.38;6.30;;;17.10;99.90;;;;;;6360362;22;20182;-96
2021/08/31 09:01:41;;;;;;;10.05;5.90;;;17.20;99.90;;;;;;6357715;22;20442;-96
2021/08/31 09:04:07;;;;;;;10.00;5.90;;;17.20;99.90;;;;;;6327600;22;20189;-96
2021/08/31 09:06:41;;;;;;;9.27;5.45;;;17.20;99.90;;;;;;6349190;22;20499;-96
2021/08/31 09:09:08;;;;;;;6.78;5.22;;;17.20;99.90;;;;;;6351992;22;20161;-96
2021/08/31 09:11:45;;;;;;;12.68;5.65;;;17.30;99.90;;;;;;6324089;22;20165;-96
2021/08/31 09:14:32;;;;;;;8.70;5.30;;;17.40;99.90;;;;;;6351776;22;20150;-96
2021/08/31 09:17:06;;;;;;;7.97;5.50;;;17.60;99.90;;;;;;6351891;22;20174;-96
2021/08/31 09:19:39;;;;;;;7.75;5.25;;;17.70;99.90;;;;;;6347586;22;20213;-96
2021/08/31 09:22:28;;;;;;;7.03;4.97;;;17.80;99.90;;;;;;6350471;22;20200;-95
2021/08/31 09:25:12;;;;;;;7.32;4.60;;;17.80;99.90;;;;;;6351345;22;20172;-94
2021/08/31 09:28:14;;;;;;;5.55;4.43;;;17.80;99.90;;;;;;6325215;22;20158;-95
2021/08/31 09:30:40;;;;;;;6.85;4.10;;;18.00;99.90;;;;;;6326609;22;20237;-96
2021/08/31 09:33:25;;;;;;;5.35;4.40;;;18.00;99.90;;;;;;6348790;22;20154;-94
2021/08/31 09:36:07;;;;;;;4.82;3.70;;;18.00;99.90;;;;;;6350472;22;20479;-96
2021/08/31 09:38:46;;;;;;;5.80;4.18;;;18.10;99.90;;;;;;6350057;22;20182;-96
2021/08/31 09:41:45;;;;;;;7.03;4.93;;;18.10;99.90;;;;;;6349732;22;20150;-96
2021/08/31 09:44:23;;;;;;;7.90;4.20;;;18.30;99.90;;;;;;6351527;22;20158;-96
2021/08/31 09:46:59;;;;;;;6.88;3.90;;;18.40;99.90;;;;;;6352056;22;20562;-95
2021/08/31 09:49:39;;;;;;;5.90;4.00;;;18.60;99.90;;;;;;6349908;22;20149;-96
2021/08/31 09:52:10;;;;;;;6.97;3.97;;;18.70;99.90;;;;;;6347472;22;20194;-95
2021/08/31 09:54:40;;;;;;;9.25;3.80;;;18.80;99.90;;;;;;6348799;22;20154;-96
2021/08/31 09:57:37;;;;;;;5.97;3.83;;;18.90;99.90;;;;;;6349745;22;20254;-96
2021/08/31 10:00:37;;;;;;;6.00;3.80;;;19.00;99.90;;;;;;6349331;22;20154;-96
2021/08/31 10:03:10;;;;;;;4.57;3.70;;;19.10;99.90;;;;;;6353069;22;20613;-96
2021/08/31 10:05:39;;;;;;;6.72;3.90;;;19.30;99.90;;;;;;6380213;22;20200;-96
2021/08/31 10:08:39;;;;;;;6.03;4.30;;;19.30;99.90;;;;;;6358630;22;20178;-96
2021/08/31 10:11:06;;;;;;;7.88;3.95;;;19.40;99.90;;;;;;6354999;22;20604;-96
2021/08/31 10:13:51;;;;;;;5.32;3.70;;;19.50;99.90;;;;;;6354095;22;20694;-96
2021/08/31 10:16:18;;;;;;;4.88;3.50;;;19.60;99.90;;;;;;6352762;22;20143;-96
2021/08/31 10:18:44;;;;;;;4.80;3.35;;;19.60;99.90;;;;;;6345222;22;20214;-95
2021/08/31 10:21:15;;;;;;;5.03;3.33;;;19.70;99.90;;;;;;6343903;22;20203;-96
2021/08/31 10:23:47;;;;;;;6.28;3.30;;;19.70;99.90;;;;;;6348485;22;20163;-96
2021/08/31 10:26:31;;;;;;;5.57;3.58;;;19.80;99.90;;;;;;6350451;22;20154;-96
2021/08/31 10:29:18;;;;;;;5.90;3.38;;;19.90;99.90;;;;;;6347708;22;20154;-95
2021/08/31 10:31:46;;;;;;;3.88;3.05;;;19.90;99.90;;;;;;6348422;22;20155;-96
2021/08/31 10:34:55;;;;;;;4.50;3.28;;;20.00;99.90;;;;;;6353044;22;20154;-96
2021/08/31 10:37:25;;;;;;;6.13;3.20;;;20.00;99.90;;;;;;6199240;23;20189;-96
2021/08/31 10:40:04;;;;;;;4.10;3.10;;;20.00;99.90;;;;;;6196931;23;20233;-96
2021/08/31 10:42:40;;;;;;;6.25;3.10;;;20.10;99.90;;;;;;6270333;22;20158;-96
2021/08/31 10:45:41;;;;;;;4.22;3.13;;;20.10;99.90;;;;;;6353417;22;20418;-96
2021/08/31 10:48:29;;;;;;;4.38;3.10;;;20.20;99.90;;;;;;6329580;22;20566;-96
2021/08/31 10:51:17;;;;;;;3.70;2.97;;;20.20;99.90;;;;;;6363942;22;20277;-96
2021/08/31 10:53:46;;;;;;;5.93;3.92;;;20.20;99.90;;;;;;6367675;22;20139;-96
2021/08/31 10:56:27;;;;;;;4.50;3.38;;;20.20;99.90;;;;;;6365026;22;20183;-96
2021/08/31 10:59:05;;;;;;;3.67;2.83;;;20.30;99.90;;;;;;6361660;22;20330;-96
2021/08/31 11:01:42;;;;;;;4.70;3.22;;;20.40;99.90;;;;;;6362175;22;20235;-96
2021/08/31 11:04:30;;;;;;;3.90;2.95;;;20.50;99.90;;;;;;6330254;22;20161;-95
2021/08/31 11:07:04;;;;;;;6.75;3.50;;;20.50;99.90;;;;;;6348416;22;20166;-96
2021/08/31 11:09:46;;;;;;;3.85;3.13;;;20.40;99.90;;;;;;6350420;22;20553;-96
2021/08/31 11:12:13;;;;;;;5.63;2.70;;;20.50;99.90;;;;;;6346895;22;20475;-96
2021/08/31 11:14:54;;;;;;;3.63;3.00;;;20.60;99.90;;;;;;6346779;22;20154;-96
2021/08/31 11:17:42;;;;;;;5.45;3.05;;;20.70;99.90;;;;;;6345603;22;20204;-95
2021/08/31 11:20:25;;;;;;;5.07;3.72;;;20.70;99.90;;;;;;6348936;22;20151;-96
2021/08/31 11:23:17;;;;;;;4.35;3.35;;;20.60;99.90;;;;;;6347881;22;20150;-96
2021/08/31 11:25:54;;;;;;;4.93;3.33;;;20.80;99.90;;;;;;6346738;22;20237;-95
2021/08/31 11:28:33;;;;;;;3.58;3.22;;;21.00;99.90;;;;;;6349232;22;20557;-96
2021/08/31 11:31:12;;;;;;;8.45;2.97;;;20.90;99.90;;;;;;6323702;22;20154;-94
2021/08/31 11:33:39;;;;;;;4.43;3.10;;;20.80;99.90;;;;;;6348232;22;20233;-96
2021/08/31 11:36:17;;;;;;;5.43;3.38;;;20.70;99.90;;;;;;6354662;22;20163;-96
2021/08/31 11:38:47;;;;;;;3.97;3.20;;;20.80;99.90;;;;;;6328318;22;20230;-96
2021/08/31 11:41:44;;;;;;;8.55;3.40;;;20.80;99.90;;;;;;6355336;22;20762;-95
2021/08/31 11:44:16;;;;;;;4.38;3.70;;;20.90;99.90;;;;;;6320218;22;20158;-96
2021/08/31 11:46:51;;;;;;;4.13;3.50;;;20.80;99.90;;;;;;6350629;22;20150;-94
2021/08/31 11:49:32;;;;;;;6.60;3.10;;;20.60;99.90;;;;;;6351562;22;20154;-96
2021/08/31 11:52:21;;;;;;;5.20;3.00;;;20.40;99.90;;;;;;6329368;22;20280;-96
2021/08/31 11:54:54;;;;;;;4.60;3.50;;;20.30;99.90;;;;;;6329458;22;20219;-96
2021/08/31 11:57:28;;;;;;;6.45;3.70;;;20.40;99.90;;;;;;6356903;22;20190;-96
2021/08/31 11:59:56;;;;;;;4.22;3.25;;;20.40;99.90;;;;;;6344885;22;20283;-96
2021/08/31 12:02:41;;;;;;;4.32;3.20;;;20.40;99.90;;;;;;6323318;22;20183;-96
2021/08/31 12:05:16;;;;;;;3.95;3.42;;;20.40;99.90;;;;;;6317278;22;20155;-96
2021/08/31 12:07:50;;;;;;;6.43;3.33;;;20.40;99.90;;;;;;6323260;22;20160;-96
2021/08/31 12:10:24;;;;;;;6.20;3.47;;;20.40;99.90;;;;;;6324810;22;20178;-96
2021/08/31 12:12:55;;;;;;;5.45;3.17;;;20.50;99.90;;;;;;6324245;22;20143;-96
2021/08/31 12:15:44;;;;;;;3.63;2.95;;;20.60;99.90;;;;;;6325757;22;20196;-96
2021/08/31 12:18:20;;;;;;;3.90;3.28;;;20.80;99.90;;;;;;6327259;22;20167;-96
2021/08/31 12:21:00;;;;;;;7.50;2.90;;;20.90;99.90;;;;;;6305256;22;20616;-96
2021/08/31 12:23:42;;;;;;;3.85;3.38;;;20.90;99.90;;;;;;6325864;22;20146;-96
2021/08/31 12:26:10;;;;;;;4.25;3.30;;;21.00;99.90;;;;;;6327391;22;20143;-96
2021/08/31 12:29:01;;;;;;;5.55;3.20;;;21.00;99.90;;;;;;6329015;22;20205;-96
2021/08/31 12:31:40;;;;;;;7.28;3.08;;;20.70;99.90;;;;;;6326838;22;20175;-96
2021/08/31 12:34:27;;;;;;;4.78;3.28;;;20.60;99.90;;;;;;6326512;22;20143;-96
2021/08/31 12:37:24;;;;;;;4.25;3.40;;;20.70;99.90;;;;;;6326551;22;20197;-95
2021/08/31 12:40:15;;;;;;;3.63;2.92;;;20.80;99.90;;;;;;6325668;22;20178;-96
2021/08/31 12:42:47;;;;;;;3.60;2.88;;;20.80;99.90;;;;;;6320456;22;20139;-93
2021/08/31 12:45:27;;;;;;;3.30;2.95;;;20.70;99.90;;;;;;6325001;22;20675;-93
2021/08/31 12:47:57;;;;;;;4.72;2.80;;;20.60;99.90;;;;;;6299698;22;20180;-96
2021/08/31 12:50:23;;;;;;;3.85;3.03;;;20.60;99.90;;;;;;6324673;22;20178;-95
2021/08/31 12:53:06;;;;;;;3.72;3.08;;;20.60;99.90;;;;;;6326136;22;20143;-96
2021/08/31 12:55:34;;;;;;;3.92;2.72;;;20.70;99.90;;;;;;6324235;22;20177;-94
2021/08/31 12:58:31;;;;;;;4.88;2.80;;;20.90;99.90;;;;;;6335275;22;20202;-96
2021/08/31 13:01:07;;;;;;;4.25;3.10;;;20.90;99.90;;;;;;6382386;22;20171;-96
2021/08/31 13:03:38;;;;;;;3.38;2.63;;;20.90;99.90;;;;;;6383111;22;20202;-96